Time;durP1;ratioP1;P1;durP2;ratioP2;P2;SDS_P1;SDS_P2;PMS_P1;PMS_P2;Temp;Humidity;BMP_temperature;BMP_pressure;BME280_temperature;BME280_humidity;BME280_pressure;Samples;Min_cycle;Max_cycle;Signal;HPM_P1;HPM_P2
2023/05/15 00:02:41;;;;;;;1.90;1.53;;;;;;;9.79;99.69;97090.94;6142390;28;20275;-56
2023/05/15 00:05:44;;;;;;;1.97;1.77;;;;;;;9.79;99.86;97088.25;6145689;28;20255;-56
2023/05/15 00:08:46;;;;;;;2.90;1.87;;;;;;;9.69;99.57;97083.66;6146362;28;20631;-56
2023/05/15 00:11:49;;;;;;;2.30;1.90;;;;;;;9.77;99.59;97090.38;6148328;28;20239;-56
2023/05/15 00:14:51;;;;;;;1.73;1.63;;;;;;;9.76;99.92;97083.47;6146217;28;20229;-57
2023/05/15 00:17:53;;;;;;;1.33;1.23;;;;;;;9.75;99.57;97089.81;6134201;29;20249;-56
2023/05/15 00:20:56;;;;;;;1.60;1.30;;;;;;;9.75;99.26;97084.50;6134664;29;20242;-56
2023/05/15 00:23:58;;;;;;;1.60;1.50;;;;;;;7.34;99.09;96713.75;6180913;23;20241;-93
2023/05/15 00:27:01;;;;;;;1.60;1.50;;;;;;;6.95;99.25;96674.00;6148642;28;20228;-94
2023/05/15 00:30:05;;;;;;;1.67;1.57;;;;;;;6.75;99.55;96620.78;6150394;28;20232;-93
2023/05/15 00:33:09;;;;;;;4.77;2.10;;;;;;;6.09;99.13;96520.06;6151273;28;20209;-93
2023/05/15 00:36:11;;;;;;;1.67;1.57;;;;;;;6.31;99.29;96556.38;6138381;28;20237;-93
2023/05/15 00:39:17;;;;;;;1.80;1.70;;;;;;;6.59;98.96;96608.34;6167656;28;20239;-92
2023/05/15 00:42:23;;;;;;;1.70;1.60;;;;;;;6.52;99.01;96597.16;6157370;28;20226;-93
2023/05/15 00:45:27;;;;;;;1.87;1.70;;;;;;;6.42;99.38;96563.41;6173150;28;20309;-93
2023/05/15 00:48:32;;;;;;;1.93;1.73;;;;;;;6.29;98.98;96556.59;6174830;28;20247;-94
2023/05/15 00:51:35;;;;;;;1.37;1.27;;;;;;;6.66;99.18;96590.47;6179181;28;20240;-93
2023/05/15 00:54:38;;;;;;;1.37;1.27;;;;;;;6.62;99.25;96594.66;6167844;28;20236;-93
2023/05/15 00:57:43;;;;;;;1.90;1.50;;;;;;;7.79;99.31;96727.81;6188373;28;20242;-93
2023/05/15 01:00:48;;;;;;;1.40;1.30;;;;;;;6.41;99.09;96545.94;6158549;28;20231;-92
2023/05/15 01:03:51;;;;;;;3.10;1.87;;;;;;;6.41;99.00;96553.88;6188520;28;20261;-94
2023/05/15 01:06:56;;;;;;;2.87;1.93;;;;;;;7.35;98.94;96719.84;6178038;28;20255;-93
2023/05/15 01:10:03;;;;;;;1.97;1.47;;;;;;;5.78;98.77;96450.06;6177850;28;20241;-93
2023/05/15 01:13:08;;;;;;;1.83;1.67;;;;;;;6.59;99.18;96598.56;6194300;28;20232;-93
2023/05/15 01:16:13;;;;;;;1.63;1.53;;;;;;;6.24;99.11;96522.16;6204834;28;20549;-93
2023/05/15 01:19:16;;;;;;;1.80;1.70;;;;;;;6.25;98.84;96538.81;6177949;28;20384;-93
2023/05/15 01:22:49;;;;;;;1.73;1.30;;;;;;;6.79;99.07;96642.25;6194975;28;20294;-94
2023/05/15 01:26:19;;;;;;;2.07;1.60;;;;;;;7.92;99.32;96810.44;6183358;28;20232;-93
2023/05/15 01:29:50;;;;;;;2.47;1.70;;;;;;;6.78;99.26;96659.97;6177798;28;20262;-93
2023/05/15 01:33:03;;;;;;;1.83;1.30;;;;;;;6.20;99.42;96548.25;6196797;28;20248;-93
2023/05/15 01:36:20;;;;;;;1.90;1.80;;;;;;;7.53;99.02;96772.53;6195164;28;20251;-93
2023/05/15 01:39:31;;;;;;;1.97;1.80;;;;;;;8.10;99.53;96830.56;6194581;28;20228;-93
2023/05/15 01:42:39;;;;;;;2.10;1.90;;;;;;;6.33;99.07;96560.38;6181691;28;20248;-94
2023/05/15 01:45:44;;;;;;;2.13;1.90;;;;;;;6.47;99.36;96603.16;6192998;28;20253;-93
2023/05/15 01:48:51;;;;;;;2.10;1.80;;;;;;;6.84;99.35;96650.25;6185675;28;20234;-94
2023/05/15 01:52:16;;;;;;;2.57;2.33;;;;;;;6.46;99.10;96596.28;6181306;28;20304;-93
2023/05/15 01:55:22;;;;;;;1.87;1.63;;;;;;;9.13;99.46;96979.41;6176794;28;20246;-93
2023/05/15 01:58:27;;;;;;;1.90;1.80;;;;;;;6.60;99.39;96612.59;6209346;28;20243;-93
2023/05/15 02:01:32;;;;;;;2.60;2.00;;;;;;;6.37;99.43;96560.69;6201613;28;20242;-93
2023/05/15 02:04:37;;;;;;;2.10;1.70;;;;;;;6.40;99.36;96574.25;6204192;28;20222;-93
2023/05/15 02:07:44;;;;;;;2.10;1.90;;;;;;;6.51;99.65;96580.47;6163468;28;20257;-93
2023/05/15 02:10:51;;;;;;;2.50;2.30;;;;;;;5.98;99.34;96496.38;6164690;28;20267;-93
2023/05/15 02:13:56;;;;;;;2.50;2.20;;;;;;;6.67;99.11;96579.63;6195253;28;20231;-93
2023/05/15 02:16:58;;;;;;;2.50;2.30;;;;;;;6.53;99.09;96551.91;6191637;28;20237;-93
2023/05/15 02:20:03;;;;;;;2.17;1.97;;;;;;;6.48;99.25;96551.84;6196586;28;20235;-93
2023/05/15 02:23:07;;;;;;;2.53;2.33;;;;;;;8.90;99.26;96900.78;6177249;28;20349;-93
2023/05/15 02:26:35;;;;;;;2.93;2.60;;;;;;;7.72;99.59;96730.63;6175295;28;20236;-94
2023/05/15 02:29:47;;;;;;;2.87;2.57;;;;;;;9.57;99.47;97014.66;6170194;28;20290;-93
2023/05/15 02:33:12;;;;;;;2.50;2.20;;;;;;;9.56;99.99;97009.59;6178309;28;20239;-94
2023/05/15 02:36:23;;;;;;;2.80;2.40;;;;;;;6.18;98.95;96486.91;6175309;28;20238;-93
2023/05/15 02:39:26;;;;;;;3.70;2.40;;;;;;;6.39;98.91;96569.97;6192742;28;20246;-93
2023/05/15 02:42:30;;;;;;;2.67;2.30;;;;;;;6.26;99.47;96557.09;6201738;28;20302;-94
2023/05/15 02:45:35;;;;;;;3.17;2.87;;;;;;;6.53;99.14;96562.50;6200301;28;20263;-93
2023/05/15 02:48:41;;;;;;;3.53;2.60;;;;;;;5.54;99.24;96430.94;6196867;28;20239;-94
2023/05/15 02:51:43;;;;;;;2.87;2.57;;;;;;;6.23;99.13;96527.69;6194632;28;20239;-93
2023/05/15 02:54:46;;;;;;;2.53;2.30;;;;;;;9.47;99.80;97021.75;6194216;28;20241;-93
2023/05/15 02:57:50;;;;;;;3.27;2.17;;;;;;;6.38;99.08;96536.63;6196054;28;20312;-93
2023/05/15 03:00:52;;;;;;;3.67;2.93;;;;;;;8.48;99.55;96863.41;6184583;28;20311;-93
2023/05/15 03:03:55;;;;;;;2.53;2.33;;;;;;;6.37;99.32;96539.53;6182803;28;20245;-93
2023/05/15 03:06:58;;;;;;;2.27;2.07;;;;;;;6.07;99.27;96505.50;6196956;28;20248;-93
2023/05/15 03:10:00;;;;;;;2.90;2.53;;;;;;;9.45;99.68;96991.94;6194506;28;20645;-93
2023/05/15 03:13:04;;;;;;;4.70;2.87;;;;;;;8.20;99.64;96827.22;6182969;28;20239;-93
2023/05/15 03:16:08;;;;;;;2.60;2.40;;;;;;;6.47;99.45;96577.50;6183997;28;20307;-93
2023/05/15 03:19:11;;;;;;;3.23;2.43;;;;;;;6.49;99.28;96576.47;6180290;28;20246;-93
2023/05/15 03:22:13;;;;;;;2.50;2.30;;;;;;;8.81;100.00;96917.41;6185925;28;20347;-93
2023/05/15 03:25:17;;;;;;;2.83;2.50;;;;;;;6.34;99.32;96554.03;6215923;28;20235;-93
2023/05/15 03:28:20;;;;;;;2.87;2.50;;;;;;;6.86;99.14;96651.63;6203446;28;20713;-93
2023/05/15 03:31:22;;;;;;;2.63;2.43;;;;;;;6.41;99.26;96552.03;6214219;28;20242;-93
2023/05/15 03:34:25;;;;;;;2.70;2.50;;;;;;;6.26;99.06;96527.22;6215187;28;20230;-93
2023/05/15 03:37:28;;;;;;;5.03;3.37;;;;;;;6.31;99.50;96554.53;6223071;28;20230;-93
2023/05/15 03:40:32;;;;;;;2.67;2.47;;;;;;;8.29;99.73;96831.06;6185578;28;20257;-93
2023/05/15 03:43:37;;;;;;;3.33;2.63;;;;;;;6.31;99.36;96543.16;6201444;28;20239;-92
2023/05/15 03:46:40;;;;;;;4.40;2.70;;;;;;;6.30;99.39;96542.31;6193286;28;20247;-93
2023/05/15 03:49:45;;;;;;;3.50;3.03;;;;;;;7.15;99.61;96648.84;6186894;28;20235;-92
2023/05/15 03:52:48;;;;;;;5.17;2.97;;;;;;;9.47;99.96;96997.81;6185367;28;20242;-93
2023/05/15 03:55:50;;;;;;;4.23;3.40;;;;;;;6.49;99.75;96560.59;6219720;28;20239;-93
2023/05/15 03:58:53;;;;;;;3.40;2.73;;;;;;;7.98;99.47;96753.78;6189174;28;20238;-93
2023/05/15 04:01:58;;;;;;;2.60;2.20;;;;;;;6.30;99.46;96509.78;6206017;28;20254;-94
2023/05/15 04:05:07;;;;;;;4.57;2.27;;;;;;;6.44;99.98;96540.94;6193174;28;20326;-93
2023/05/15 04:08:11;;;;;;;1.50;1.07;;;;;;;6.46;99.27;96583.84;6203062;28;20229;-93
2023/05/15 04:11:30;;;;;;;1.20;0.70;;;;;;;7.25;99.33;96691.38;6181961;28;20242;-94
2023/05/15 04:14:33;;;;;;;0.70;0.63;;;;;;;6.76;99.31;96632.97;6182913;28;20314;-94
2023/05/15 04:17:37;;;;;;;0.73;0.70;;;;;;;5.66;98.70;96457.25;6215600;28;20238;-94
2023/05/15 04:20:40;;;;;;;1.20;0.80;;;;;;;7.68;99.08;96756.84;6189690;28;20238;-93
2023/05/15 04:23:43;;;;;;;0.70;0.60;;;;;;;6.39;98.42;96572.63;6192431;28;20277;-91
2023/05/15 04:26:45;;;;;;;2.07;0.70;;;;;;;6.08;97.75;96525.63;6185022;28;20252;-91
2023/05/15 04:29:48;;;;;;;2.10;0.57;;;;;;;6.96;97.47;96675.59;6191643;28;20372;-93
2023/05/15 04:32:51;;;;;;;0.70;0.53;;;;;;;7.46;98.25;96748.06;6211212;28;20230;-93
2023/05/15 04:35:54;;;;;;;2.00;0.63;;;;;;;8.01;98.49;96829.38;6198407;28;20238;-92
2023/05/15 04:38:56;;;;;;;5.33;0.90;;;;;;;7.69;98.18;96752.34;6208412;28;20243;-91
2023/05/15 04:41:59;;;;;;;0.70;0.70;;;;;;;8.73;98.73;96916.00;6206812;28;20238;-92
2023/05/15 04:45:02;;;;;;;0.67;0.67;;;;;;;9.15;98.24;96968.50;6195646;28;20269;-91
2023/05/15 04:48:10;;;;;;;0.60;0.60;;;;;;;7.61;98.11;96737.66;6184241;28;20234;-92
2023/05/15 04:51:13;;;;;;;1.50;0.60;;;;;;;6.10;97.42;96510.28;6202093;28;20213;-91
2023/05/15 04:54:18;;;;;;;6.53;1.00;;;;;;;6.21;97.15;96533.22;6222901;28;20255;-94
2023/05/15 04:57:21;;;;;;;2.40;0.60;;;;;;;6.79;97.19;96653.63;6197551;28;20237;-92
2023/05/15 05:00:27;;;;;;;0.30;0.30;;;;;;;6.59;97.17;96595.13;6200766;28;20232;-93
2023/05/15 05:03:30;;;;;;;5.90;0.70;;;;;;;8.08;97.57;96790.22;6193678;28;20364;-92
2023/05/15 05:06:33;;;;;;;1.27;0.40;;;;;;;8.25;97.82;96830.75;6207998;28;20240;-92
2023/05/15 05:09:37;;;;;;;0.70;0.50;;;;;;;5.63;96.74;96457.75;6217930;28;20227;-92
2023/05/15 05:12:40;;;;;;;0.50;0.40;;;;;;;8.76;97.77;96904.88;6202979;28;20226;-92
2023/05/15 05:15:42;;;;;;;0.70;0.47;;;;;;;6.29;97.18;96527.50;6221729;28;20237;-92
2023/05/15 05:18:45;;;;;;;0.33;0.33;;;;;;;8.12;97.54;96807.22;6199129;28;20222;-92
2023/05/15 05:21:48;;;;;;;2.20;0.80;;;;;;;8.34;97.50;96840.94;6206527;28;20238;-93
2023/05/15 05:24:50;;;;;;;0.30;0.30;;;;;;;7.05;97.14;96654.03;6186090;28;20239;-92
2023/05/15 05:27:53;;;;;;;0.40;0.40;;;;;;;6.91;97.13;96617.28;6208311;28;20242;-93
2023/05/15 05:30:55;;;;;;;1.77;0.40;;;;;;;6.38;96.32;96570.22;6212215;28;20239;-91
2023/05/15 05:33:58;;;;;;;0.40;0.40;;;;;;;8.72;94.77;96925.03;6187161;28;20231;-91
2023/05/15 05:37:01;;;;;;;1.47;0.37;;;;;;;6.43;95.05;96579.03;6185123;28;20231;-92
2023/05/15 05:40:05;;;;;;;1.43;0.50;;;;;;;6.01;95.07;96522.31;6211788;28;20240;-92
2023/05/15 05:43:07;;;;;;;1.33;0.77;;;;;;;8.45;95.72;96895.75;6215814;28;20315;-92
2023/05/15 05:46:10;;;;;;;0.30;0.30;;;;;;;7.80;95.52;96788.53;6212271;28;20237;-92
2023/05/15 05:49:15;;;;;;;0.70;0.50;;;;;;;7.12;95.37;96687.22;6193024;28;20748;-93
2023/05/15 05:52:18;;;;;;;0.30;0.30;;;;;;;8.09;95.97;96812.25;6216052;28;20325;-93
2023/05/15 05:55:21;;;;;;;0.30;0.30;;;;;;;7.01;95.78;96642.31;6211629;28;20236;-92
2023/05/15 05:58:24;;;;;;;2.03;0.80;;;;;;;6.17;95.71;96516.22;6188967;28;20264;-93
2023/05/15 06:01:27;;;;;;;0.93;0.50;;;;;;;6.88;94.68;96619.63;6190681;28;20231;-92
2023/05/15 06:04:34;;;;;;;0.47;0.30;;;;;;;6.44;94.28;96535.66;6214376;28;20685;-92
2023/05/15 06:07:37;;;;;;;0.30;0.30;;;;;;;7.35;94.59;96696.00;6201377;28;20801;-92
2023/05/15 06:10:41;;;;;;;1.23;0.33;;;;;;;7.40;94.76;96682.81;6211065;28;20634;-93
2023/05/15 06:13:43;;;;;;;0.97;0.30;;;;;;;8.65;94.59;96848.19;6190284;28;20753;-92
2023/05/15 06:16:46;;;;;;;0.80;0.30;;;;;;;9.15;94.26;96921.47;6193197;28;20262;-91
2023/05/15 06:19:49;;;;;;;0.77;0.30;;;;;;;6.66;93.38;96537.56;6177182;28;20303;-92
2023/05/15 06:22:52;;;;;;;0.30;0.30;;;;;;;6.80;93.99;96589.09;6176367;28;20227;-92
2023/05/15 06:25:55;;;;;;;1.17;0.40;;;;;;;6.96;91.05;96564.41;6209336;28;20234;-92
2023/05/15 06:28:57;;;;;;;1.30;0.30;;;;;;;6.52;91.60;96512.50;6210087;28;20234;-92
2023/05/15 06:32:00;;;;;;;0.67;0.30;;;;;;;8.06;92.96;96780.91;6199086;28;20238;-92
2023/05/15 06:35:03;;;;;;;1.07;0.30;;;;;;;7.38;92.11;96688.34;6186538;28;20346;-92
2023/05/15 06:38:05;;;;;;;0.30;0.23;;;;;;;7.65;91.78;96732.69;6203707;28;20231;-92
2023/05/15 06:41:08;;;;;;;0.30;0.30;;;;;;;8.43;92.57;96784.53;6202936;28;20250;-92
2023/05/15 06:44:10;;;;;;;0.30;0.30;;;;;;;8.12;93.16;96717.03;6181264;28;20230;-92
2023/05/15 06:47:13;;;;;;;0.47;0.30;;;;;;;9.68;93.07;96950.94;6199009;28;20300;-92
2023/05/15 06:50:15;;;;;;;0.20;0.20;;;;;;;10.15;93.83;97016.72;6176798;28;20291;-92
2023/05/15 06:53:19;;;;;;;0.20;0.20;;;;;;;9.55;94.13;96944.16;6185851;28;20243;-92
2023/05/15 06:56:22;;;;;;;2.13;0.33;;;;;;;7.87;93.52;96675.13;6169866;28;20242;-91
2023/05/15 06:59:24;;;;;;;0.60;0.20;;;;;;;8.07;93.52;96726.78;6172853;28;20239;-91
2023/05/15 07:02:27;;;;;;;0.27;0.27;;;;;;;8.62;91.32;96773.56;6188416;28;20249;-91
2023/05/15 07:05:29;;;;;;;0.30;0.30;;;;;;;9.09;86.90;96828.69;6181081;28;20227;-92
2023/05/15 07:08:31;;;;;;;0.83;0.37;;;;;;;8.30;86.59;96726.50;6197635;28;20318;-92
2023/05/15 07:11:36;;;;;;;0.30;0.30;;;;;;;10.40;87.33;97037.47;6199100;28;20234;-92
2023/05/15 07:14:38;;;;;;;0.33;0.30;;;;;;;9.97;88.73;97007.28;6203318;28;20235;-91
2023/05/15 07:17:41;;;;;;;0.70;0.30;;;;;;;8.87;89.86;96821.63;6180267;28;20236;-92
2023/05/15 07:20:43;;;;;;;0.70;0.30;;;;;;;8.60;91.09;96773.81;6194977;28;20231;-91
2023/05/15 07:23:46;;;;;;;0.40;0.30;;;;;;;9.46;91.17;96898.66;6192680;28;20608;-91
2023/05/15 07:26:48;;;;;;;0.60;0.40;;;;;;;8.51;89.20;96743.47;6184294;28;20247;-91
2023/05/15 07:30:04;;;;;;;1.60;0.33;;;;;;;10.58;89.67;97045.81;6208463;28;20682;-91
2023/05/15 07:33:06;;;;;;;0.30;0.30;;;;;;;9.00;85.48;96762.72;6193353;28;20231;-91
2023/05/15 07:36:09;;;;;;;0.30;0.30;;;;;;;10.05;83.15;96913.69;6202551;28;20263;-92
2023/05/15 07:39:12;;;;;;;0.87;0.30;;;;;;;9.65;82.90;96847.72;6185292;28;21145;-91
2023/05/15 07:42:14;;;;;;;0.30;0.30;;;;;;;9.66;84.63;96844.81;6183456;28;20590;-92
2023/05/15 07:45:16;;;;;;;2.30;0.50;;;;;;;10.55;88.29;96962.97;6182438;28;20216;-92
2023/05/15 07:48:19;;;;;;;0.63;0.30;;;;;;;11.50;87.89;97096.09;6207437;28;20316;-91
2023/05/15 07:51:22;;;;;;;0.90;0.40;;;;;;;9.73;87.42;96840.06;6190165;28;20235;-92
2023/05/15 07:54:25;;;;;;;1.23;0.40;;;;;;;11.53;85.24;97111.59;6191548;28;20228;-92
2023/05/15 07:57:28;;;;;;;0.67;0.30;;;;;;;9.64;83.56;96812.34;6207061;28;20234;-92
2023/05/15 08:00:30;;;;;;;0.30;0.30;;;;;;;11.15;81.61;97040.78;6185229;28;20318;-92
2023/05/15 08:03:32;;;;;;;0.77;0.30;;;;;;;8.96;83.26;96718.34;6206782;28;20232;-92
2023/05/15 08:06:38;;;;;;;0.63;0.30;;;;;;;9.78;82.78;96857.91;6190658;28;20575;-91
2023/05/15 08:09:42;;;;;;;0.43;0.43;;;;;;;9.95;82.95;96897.66;6209000;28;20230;-91
2023/05/15 08:12:46;;;;;;;0.20;0.20;;;;;;;9.93;83.66;96887.28;6188325;28;20244;-92
2023/05/15 08:15:48;;;;;;;1.60;0.40;;;;;;;10.71;84.30;97014.47;6200403;28;20263;-91
2023/05/15 08:18:57;;;;;;;1.33;0.30;;;;;;;9.57;81.47;96831.19;6207027;28;20245;-93
2023/05/15 08:22:01;;;;;;;0.30;0.30;;;;;;;9.84;81.81;96838.25;6183971;28;20231;-91
2023/05/15 08:25:05;;;;;;;0.87;0.30;;;;;;;9.82;83.43;96809.25;6182494;28;20241;-91
2023/05/15 08:28:09;;;;;;;1.80;0.40;;;;;;;10.36;81.98;96937.84;6200063;28;20256;-92
2023/05/15 08:31:12;;;;;;;0.40;0.40;;;;;;;10.09;80.53;96846.38;6203802;28;20237;-90
2023/05/15 08:34:14;;;;;;;0.43;0.43;;;;;;;9.09;79.57;96677.25;6177673;28;20247;-92
2023/05/15 08:37:16;;;;;;;0.40;0.37;;;;;;;11.86;82.21;97094.34;6186286;28;20236;-91
2023/05/15 08:40:19;;;;;;;0.43;0.43;;;;;;;9.23;79.15;96641.19;6197101;28;20237;-91
2023/05/15 08:43:38;;;;;;;0.40;0.27;;;;;;;11.80;76.07;97044.69;6183753;28;20320;-91
2023/05/15 08:46:40;;;;;;;1.67;0.30;;;;;;;11.08;76.77;96927.22;6206624;28;20239;-91
2023/05/15 08:50:16;;;;;;;1.13;0.40;;;;;;;11.24;70.58;96922.72;6203910;28;20262;-92
2023/05/15 08:53:19;;;;;;;0.20;0.20;;;;;;;12.30;72.58;97062.63;6127513;28;20244;-92
2023/05/15 08:56:22;;;;;;;0.73;0.40;;;;;;;12.48;75.31;97055.94;6126661;28;20272;-92
2023/05/15 08:59:25;;;;;;;2.20;0.30;;;;;;;12.07;75.88;97010.56;6141329;28;20473;-92
2023/05/15 09:02:27;;;;;;;2.83;0.40;;;;;;;11.59;76.89;96929.94;6125866;28;20241;-92
2023/05/15 09:05:31;;;;;;;0.93;0.20;;;;;;;11.82;66.52;96936.66;6130774;28;20230;-92
2023/05/15 09:08:34;;;;;;;1.90;0.30;;;;;;;9.93;71.44;96671.78;6143564;28;20240;-92
2023/05/15 09:11:44;;;;;;;1.50;0.30;;;;;;;11.09;71.21;96864.03;6144453;28;20313;-92
2023/05/15 09:14:47;;;;;;;1.67;0.53;;;;;;;13.14;73.58;97138.66;6128010;28;20229;-92
2023/05/15 09:17:51;;;;;;;0.63;0.30;;;;;;;12.15;70.75;96977.19;6128093;28;20416;-93
2023/05/15 09:20:54;;;;;;;0.30;0.30;;;;;;;12.63;67.67;97047.09;6127012;28;20867;-91
2023/05/15 09:24:22;;;;;;;0.33;0.30;;;;;;;13.15;66.51;97126.94;6116779;28;20227;-92
2023/05/15 09:27:25;;;;;;;0.47;0.20;;;;;;;10.23;68.85;96736.78;6140066;28;20232;-92
2023/05/15 09:30:29;;;;;;;0.53;0.30;;;;;;;13.03;69.03;97163.03;6172320;28;20709;-92
2023/05/15 09:33:34;;;;;;;1.37;0.20;;;;;;;12.48;72.38;97076.50;6138945;28;20249;-92
2023/05/15 09:36:42;;;;;;;1.47;0.40;;;;;;;12.01;71.50;97035.66;6153520;28;20253;-91
2023/05/15 09:39:45;;;;;;;2.47;0.30;;;;;;;11.38;71.08;96952.34;6145899;28;20242;-92
2023/05/15 09:42:53;;;;;;;0.33;0.33;;;;;;;11.98;69.32;97059.41;6157467;28;20234;-92
2023/05/15 09:45:55;;;;;;;1.50;0.23;;;;;;;11.72;68.54;96992.63;6152927;28;20385;-92
2023/05/15 09:48:58;;;;;;;1.27;0.30;;;;;;;11.15;70.37;96888.84;6173349;28;20626;-94
2023/05/15 09:52:01;;;;;;;0.47;0.30;;;;;;;12.46;70.77;97050.03;6199374;28;20646;-92
2023/05/15 09:55:05;;;;;;;0.73;0.23;;;;;;;10.72;64.87;96696.41;6201310;28;20232;-91
2023/05/15 09:58:10;;;;;;;1.20;0.50;;;;;;;12.63;66.76;97029.19;6188795;28;20240;-91
2023/05/15 10:01:12;;;;;;;2.13;0.40;;;;;;;11.27;67.07;96828.03;6189266;28;20225;-91
2023/05/15 10:04:15;;;;;;;0.83;0.40;;;;;;;12.74;70.86;97037.19;6208420;28;20365;-91
2023/05/15 10:07:26;;;;;;;1.87;0.40;;;;;;;10.89;66.43;96741.44;6202041;28;20235;-92
2023/05/15 10:10:29;;;;;;;0.50;0.30;;;;;;;12.30;66.09;96915.72;6189933;28;20288;-91
2023/05/15 10:13:33;;;;;;;0.83;0.30;;;;;;;13.66;60.88;97070.56;6183747;28;20238;-92
2023/05/15 10:16:37;;;;;;;2.43;0.60;;;;;;;12.56;68.45;96940.53;6197479;28;20233;-92
2023/05/15 10:19:40;;;;;;;0.30;0.30;;;;;;;13.72;65.28;97090.06;6185674;28;20233;-91
2023/05/15 10:23:00;;;;;;;0.20;0.20;;;;;;;12.09;63.75;96840.22;6188007;28;20224;-92
2023/05/15 10:26:20;;;;;;;0.30;0.30;;;;;;;12.26;68.72;96871.13;6202404;28;20236;-92
2023/05/15 10:29:25;;;;;;;1.10;0.40;;;;;;;12.94;67.40;96953.44;6166591;28;20252;-92
2023/05/15 10:32:29;;;;;;;1.63;0.30;;;;;;;13.25;62.92;97021.81;6178498;28;20691;-92
2023/05/15 10:35:32;;;;;;;1.37;0.40;;;;;;;12.63;65.31;96908.94;6199316;28;20264;-92
2023/05/15 10:38:37;;;;;;;0.37;0.20;;;;;;;13.11;63.96;97007.41;6203218;28;20690;-92
2023/05/15 10:41:41;;;;;;;0.70;0.30;;;;;;;12.36;63.18;96881.78;6200727;28;20651;-92
2023/05/15 10:44:44;;;;;;;2.10;0.30;;;;;;;12.97;67.90;96942.22;6197508;28;20244;-92
2023/05/15 10:47:47;;;;;;;0.57;0.40;;;;;;;14.52;63.47;97150.63;6201982;28;20275;-92
2023/05/15 10:50:49;;;;;;;0.40;0.33;;;;;;;12.66;65.49;96854.16;6177156;28;20339;-91
2023/05/15 10:53:53;;;;;;;4.07;0.87;;;;;;;13.31;65.87;96934.31;6178492;28;20347;-92
2023/05/15 10:56:56;;;;;;;0.40;0.40;;;;;;;14.59;62.02;97127.81;6191145;28;20629;-92
2023/05/15 11:00:00;;;;;;;1.00;0.40;;;;;;;14.32;56.98;97061.25;6191448;28;20243;-92
2023/05/15 11:03:04;;;;;;;1.63;0.63;;;;;;;12.72;60.90;96871.78;6189309;28;20236;-92
2023/05/15 11:06:11;;;;;;;0.37;0.37;;;;;;;12.83;57.64;96824.41;6186790;28;20213;-92
2023/05/15 11:09:33;;;;;;;2.40;0.50;;;;;;;13.68;61.19;97003.34;6200085;28;20220;-91
2023/05/15 11:12:54;;;;;;;0.40;0.40;;;;;;;13.06;63.26;96847.78;6200602;28;20229;-93
2023/05/15 11:15:57;;;;;;;5.33;1.03;;;;;;;12.88;65.70;96829.72;6196002;28;20232;-93
2023/05/15 11:19:00;;;;;;;1.47;0.60;;;;;;;13.61;58.01;96911.88;6199695;28;20268;-92
2023/05/15 11:22:18;;;;;;;1.20;0.57;;;;;;;15.05;60.71;97113.97;6197185;28;20414;-92
2023/05/15 11:25:29;;;;;;;0.63;0.60;;;;;;;15.12;58.39;97105.56;6203879;28;20325;-92
2023/05/15 11:28:41;;;;;;;2.90;0.50;;;;;;;14.40;58.40;96976.78;6177767;28;20228;-93
2023/05/15 11:31:43;;;;;;;1.20;0.50;;;;;;;12.14;60.85;96612.47;6200214;28;20810;-94
2023/05/15 11:34:49;;;;;;;0.90;0.40;;;;;;;12.46;55.93;96649.34;6188018;28;20232;-92
2023/05/15 11:38:01;;;;;;;0.90;0.50;;;;;;;13.73;57.32;96879.38;6184937;28;20240;-92
2023/05/15 11:41:16;;;;;;;2.30;0.43;;;;;;;15.23;59.56;97117.81;6200769;28;20323;-92
2023/05/15 11:44:23;;;;;;;0.37;0.37;;;;;;;14.95;62.01;97114.06;6202920;28;20229;-91
2023/05/15 11:47:28;;;;;;;0.60;0.50;;;;;;;13.07;58.95;96835.22;6167133;28;20225;-92
2023/05/15 11:50:32;;;;;;;0.77;0.37;;;;;;;14.68;60.69;97144.09;6177182;28;20297;-92
2023/05/15 11:53:37;;;;;;;0.40;0.27;;;;;;;12.32;59.54;96761.38;6191736;28;20240;-93
2023/05/15 11:56:44;;;;;;;0.30;0.30;;;;;;;12.77;58.32;96842.34;6176771;28;20237;-91
2023/05/15 11:59:46;;;;;;;2.17;0.30;;;;;;;12.81;60.95;96839.94;6201346;28;20263;-93
2023/05/15 12:02:49;;;;;;;1.93;0.40;;;;;;;12.25;59.45;96766.19;6192605;28;20229;-91
2023/05/15 12:05:53;;;;;;;0.40;0.30;;;;;;;13.05;58.53;96870.25;6201110;28;20235;-92
2023/05/15 12:09:00;;;;;;;2.57;0.50;;;;;;;12.95;61.66;96832.84;6185436;28;20725;-92
2023/05/15 12:12:05;;;;;;;0.30;0.30;;;;;;;11.93;61.13;96680.41;6183629;28;20231;-92
2023/05/15 12:15:12;;;;;;;0.43;0.40;;;;;;;14.47;58.60;97033.50;6197056;28;20440;-91
2023/05/15 12:18:15;;;;;;;1.60;0.33;;;;;;;14.89;57.13;97083.81;6174894;28;20794;-92
2023/05/15 12:21:18;;;;;;;0.30;0.30;;;;;;;15.57;56.56;97128.41;6174082;28;20209;-91
2023/05/15 12:24:21;;;;;;;1.80;0.40;;;;;;;14.75;58.68;97012.38;6188536;28;20243;-92
2023/05/15 12:27:25;;;;;;;0.20;0.20;;;;;;;13.61;57.27;96864.50;6189326;28;20231;-91
2023/05/15 12:30:30;;;;;;;0.50;0.40;;;;;;;13.40;55.88;96806.91;6198434;28;20231;-92
2023/05/15 12:33:32;;;;;;;0.40;0.37;;;;;;;14.38;56.67;96957.50;6186147;28;20379;-91
2023/05/15 12:36:45;;;;;;;1.70;0.40;;;;;;;15.10;58.51;97084.41;6182356;28;20231;-91
2023/05/15 12:40:00;;;;;;;0.30;0.30;;;;;;;13.98;56.48;96860.41;6205990;28;20712;-92
2023/05/15 12:43:06;;;;;;;1.17;0.40;;;;;;;13.30;59.35;96786.38;6174091;28;20229;-92
2023/05/15 12:46:13;;;;;;;1.63;0.60;;;;;;;13.92;56.92;96856.97;6193936;28;20267;-91
2023/05/15 12:49:21;;;;;;;0.20;0.20;;;;;;;13.91;53.69;96860.75;6203649;28;20350;-93
2023/05/15 12:52:28;;;;;;;0.67;0.40;;;;;;;15.32;58.21;97081.22;6189093;28;20285;-92
2023/05/15 12:55:33;;;;;;;4.07;0.30;;;;;;;15.40;57.53;97088.59;6192017;28;20232;-92
2023/05/15 12:58:37;;;;;;;1.90;0.40;;;;;;;12.63;54.69;96671.13;6195300;28;20240;-91
2023/05/15 13:01:43;;;;;;;5.00;0.50;;;;;;;12.46;53.72;96657.38;6193434;28;20753;-91
2023/05/15 13:04:47;;;;;;;0.20;0.20;;;;;;;14.18;56.69;96943.22;6197321;28;20275;-92
2023/05/15 13:07:51;;;;;;;0.20;0.20;;;;;;;15.09;54.05;97022.97;6195971;28;20389;-92
2023/05/15 13:10:58;;;;;;;3.03;0.27;;;;;;;12.98;56.92;96728.06;6202337;28;20236;-91
2023/05/15 13:14:09;;;;;;;0.30;0.30;;;;;;;13.11;54.40;96777.44;6180911;28;20239;-91
2023/05/15 13:17:13;;;;;;;0.20;0.20;;;;;;;14.15;55.76;96954.50;6206149;28;20225;-91
2023/05/15 13:20:16;;;;;;;0.20;0.20;;;;;;;14.84;54.69;97045.53;6209740;28;20224;-91
2023/05/15 13:23:19;;;;;;;0.63;0.20;;;;;;;15.05;53.43;97075.59;6210959;28;20228;-91
2023/05/15 13:26:22;;;;;;;0.20;0.20;;;;;;;14.19;53.86;96960.91;6216238;28;20253;-92
2023/05/15 13:29:24;;;;;;;0.53;0.30;;;;;;;14.07;57.49;97032.00;6172710;28;20239;-91
2023/05/15 13:32:26;;;;;;;0.33;0.30;;;;;;;13.56;59.26;96931.44;6194617;28;20224;-92
2023/05/15 13:35:30;;;;;;;0.30;0.30;;;;;;;14.27;59.76;97050.56;6195318;28;20229;-92
2023/05/15 13:38:32;;;;;;;0.30;0.30;;;;;;;13.36;59.07;96862.84;6204630;28;20237;-92
2023/05/15 13:41:35;;;;;;;0.50;0.30;;;;;;;14.82;55.62;97050.34;6174574;28;20236;-92
2023/05/15 13:44:38;;;;;;;0.97;0.27;;;;;;;14.24;58.85;96976.13;6197194;28;20224;-92
2023/05/15 13:47:42;;;;;;;0.40;0.30;;;;;;;15.07;54.38;97073.44;6202527;28;20442;-91
2023/05/15 13:50:45;;;;;;;0.37;0.37;;;;;;;13.01;55.66;96697.31;6194311;28;20232;-92
2023/05/15 13:53:47;;;;;;;0.43;0.40;;;;;;;14.41;55.59;96956.94;6185692;28;20228;-92
2023/05/15 13:56:50;;;;;;;0.40;0.40;;;;;;;14.94;55.88;97046.22;6193632;28;20231;-91
2023/05/15 13:59:52;;;;;;;0.27;0.27;;;;;;;15.48;52.02;97135.50;6198439;28;20243;-92
2023/05/15 14:02:55;;;;;;;0.30;0.23;;;;;;;14.77;52.96;97031.66;6195989;28;20231;-92
2023/05/15 14:05:57;;;;;;;1.03;0.27;;;;;;;15.62;54.13;97141.78;6189915;28;20244;-93
2023/05/15 14:09:00;;;;;;;0.43;0.37;;;;;;;15.13;55.12;97065.06;6206908;28;20645;-92
2023/05/15 14:12:03;;;;;;;1.27;0.43;;;;;;;13.82;56.25;96867.78;6193639;28;20241;-93
2023/05/15 14:15:06;;;;;;;0.30;0.30;;;;;;;13.77;56.35;96857.13;6214136;28;20262;-93
2023/05/15 14:18:08;;;;;;;0.30;0.30;;;;;;;12.82;55.78;96721.25;6209000;28;20229;-92
2023/05/15 14:21:11;;;;;;;0.30;0.30;;;;;;;13.68;57.82;96856.94;6202298;28;20413;-91
2023/05/15 14:24:13;;;;;;;1.33;0.50;;;;;;;13.94;57.67;96902.22;6201626;28;20244;-91
2023/05/15 14:27:16;;;;;;;2.40;0.30;;;;;;;14.09;59.32;96923.50;6184110;28;20216;-92
2023/05/15 14:30:21;;;;;;;2.00;0.50;;;;;;;15.75;58.17;97159.09;6197802;28;20213;-93
2023/05/15 14:33:25;;;;;;;0.53;0.30;;;;;;;15.19;59.04;97069.28;6199875;28;20728;-93
2023/05/15 14:36:27;;;;;;;0.40;0.30;;;;;;;14.32;55.26;96918.44;6186814;28;20225;-92
2023/05/15 14:39:30;;;;;;;1.67;0.50;;;;;;;13.82;56.67;96883.84;6194500;28;20293;-92